Time;durP1;ratioP1;P1;durP2;ratioP2;P2;SDS_P1;SDS_P2;PMS_P1;PMS_P2;Temp;Humidity;BMP_temperature;BMP_pressure;BME280_temperature;BME280_humidity;BME280_pressure;Samples;Min_cycle;Max_cycle;Signal;HPM_P1;HPM_P2
2022/06/30 00:00:17;;;;;;;0.00;0.00;;;19.20;99.90;;;;;;4913543;29;20917;-73
2022/06/30 00:02:45;;;;;;;0.00;0.00;;;19.20;99.90;;;;;;4923749;29;20949;-73
2022/06/30 00:05:12;;;;;;;0.00;0.00;;;19.20;99.90;;;;;;4924073;29;20755;-74
2022/06/30 00:07:42;;;;;;;0.00;0.00;;;19.10;99.90;;;;;;4923806;29;20473;-74
2022/06/30 00:10:11;;;;;;;0.00;0.00;;;19.10;99.90;;;;;;4923995;29;20449;-75
2022/06/30 00:12:41;;;;;;;0.00;0.00;;;19.10;99.90;;;;;;4924081;29;20953;-75
2022/06/30 00:15:10;;;;;;;0.00;0.00;;;19.10;99.90;;;;;;4924204;29;20448;-73
2022/06/30 00:17:38;;;;;;;0.00;0.00;;;19.00;99.90;;;;;;4923612;29;20496;-74
2022/06/30 00:20:06;;;;;;;0.00;0.00;;;19.00;99.90;;;;;;4923509;29;20450;-72
2022/06/30 00:22:34;;;;;;;0.00;0.00;;;18.90;99.90;;;;;;4923256;29;20480;-72
2022/06/30 00:25:02;;;;;;;0.00;0.00;;;18.90;99.90;;;;;;4922896;29;20940;-73
2022/06/30 00:27:30;;;;;;;0.00;0.00;;;18.90;99.90;;;;;;4923075;29;21055;-73
2022/06/30 00:30:00;;;;;;;0.00;0.00;;;18.90;99.90;;;;;;4922632;29;20627;-72
2022/06/30 00:32:27;;;;;;;0.00;0.00;;;18.90;99.90;;;;;;4922167;29;20875;-72
2022/06/30 00:34:55;;;;;;;0.00;0.00;;;18.80;99.90;;;;;;4923011;29;20528;-72
2022/06/30 00:37:23;;;;;;;0.00;0.00;;;18.80;99.90;;;;;;4922906;29;20535;-72
2022/06/30 00:39:51;;;;;;;0.00;0.00;;;18.80;99.90;;;;;;4923329;29;20444;-72
2022/06/30 00:42:19;;;;;;;0.00;0.00;;;18.70;99.90;;;;;;4922775;29;20568;-72
2022/06/30 00:44:46;;;;;;;0.00;0.00;;;18.70;99.90;;;;;;4922811;29;20449;-72
2022/06/30 00:47:16;;;;;;;0.00;0.00;;;18.70;99.90;;;;;;4922884;29;21039;-72
2022/06/30 00:49:43;;;;;;;0.00;0.00;;;18.70;99.90;;;;;;4923157;29;20566;-72
2022/06/30 00:52:12;;;;;;;0.00;0.00;;;18.70;99.90;;;;;;4903638;29;20480;-72
2022/06/30 00:54:42;;;;;;;0.00;0.00;;;18.60;99.90;;;;;;4903889;29;20453;-72
2022/06/30 00:57:11;;;;;;;0.00;0.00;;;18.60;99.90;;;;;;4903277;29;20569;-73
2022/06/30 00:59:41;;;;;;;0.00;0.00;;;18.50;99.90;;;;;;4904585;29;20468;-73
2022/06/30 01:02:09;;;;;;;0.00;0.00;;;18.60;99.90;;;;;;4904178;29;20937;-73
2022/06/30 01:04:41;;;;;;;0.00;0.00;;;18.50;99.90;;;;;;4904224;29;20448;-72
2022/06/30 01:07:09;;;;;;;0.00;0.00;;;18.50;99.90;;;;;;4903859;29;20745;-73
2022/06/30 01:15:09;;;;;;;0.00;0.00;;;18.40;99.90;;;;;;4903068;29;20636;-72
2022/06/30 01:17:37;;;;;;;0.00;0.00;;;18.40;99.90;;;;;;4903084;29;20653;-73
2022/06/30 01:20:07;;;;;;;0.00;0.00;;;18.40;99.90;;;;;;4903060;29;20448;-73
2022/06/30 01:22:37;;;;;;;0.00;0.00;;;18.40;99.90;;;;;;4907677;29;20868;-74
2022/06/30 01:25:20;;;;;;;0.00;0.00;;;18.30;99.90;;;;;;4932071;29;20453;-72
2022/06/30 01:27:48;;;;;;;0.00;0.00;;;18.30;99.90;;;;;;4925311;29;20481;-73
2022/06/30 01:30:16;;;;;;;0.00;0.00;;;18.30;99.90;;;;;;4922878;29;21023;-76
2022/06/30 01:32:43;;;;;;;0.00;0.00;;;18.20;99.90;;;;;;4921823;29;20455;-75
2022/06/30 01:35:11;;;;;;;0.00;0.00;;;18.20;99.90;;;;;;4922178;29;20448;-73
2022/06/30 01:37:49;;;;;;;0.00;0.00;;;18.20;99.90;;;;;;4919829;29;20515;-73
2022/06/30 01:40:17;;;;;;;0.00;0.00;;;18.20;99.90;;;;;;4905360;29;20755;-77
2022/06/30 01:42:45;;;;;;;0.30;0.00;;;18.20;99.90;;;;;;4903188;29;20513;-74
2022/06/30 01:45:13;;;;;;;0.00;0.00;;;18.20;99.90;;;;;;4903699;29;20933;-72
2022/06/30 01:47:41;;;;;;;0.00;0.00;;;18.20;99.90;;;;;;4904680;29;20498;-71
2022/06/30 01:50:13;;;;;;;0.00;0.00;;;18.20;99.90;;;;;;4905014;29;20648;-71
2022/06/30 01:52:41;;;;;;;0.00;0.00;;;18.20;99.90;;;;;;4913062;29;20477;-80
2022/06/30 01:55:12;;;;;;;0.00;0.00;;;18.30;99.90;;;;;;4932255;29;20540;-78
2022/06/30 01:57:40;;;;;;;0.00;0.00;;;18.30;99.90;;;;;;4913785;29;20578;-80
2022/06/30 02:00:10;;;;;;;0.00;0.00;;;18.30;99.90;;;;;;4925934;29;20845;-78
2022/06/30 02:02:39;;;;;;;0.00;0.00;;;18.30;99.90;;;;;;4930575;29;20459;-78
2022/06/30 02:05:08;;;;;;;0.00;0.00;;;18.30;99.90;;;;;;4930355;29;20448;-79
2022/06/30 02:07:37;;;;;;;0.00;0.00;;;18.30;99.90;;;;;;4912213;29;20926;-76
2022/06/30 02:10:06;;;;;;;0.00;0.00;;;18.20;99.90;;;;;;4912422;29;21008;-76
2022/06/30 02:12:47;;;;;;;0.00;0.00;;;18.20;99.90;;;;;;4913597;29;20444;-76
2022/06/30 02:15:18;;;;;;;0.00;0.00;;;18.20;99.90;;;;;;4904483;29;20445;-76
2022/06/30 02:23:05;;;;;;;0.00;0.00;;;18.10;99.90;;;;;;5051588;23;20485;-92
2022/06/30 02:25:34;;;;;;;0.00;0.00;;;18.10;99.90;;;;;;5008883;28;20440;-92
2022/06/30 02:28:05;;;;;;;0.00;0.00;;;18.10;99.90;;;;;;5009958;28;20494;-93
2022/06/30 02:30:34;;;;;;;0.00;0.00;;;18.10;99.90;;;;;;5007005;28;20974;-92
2022/06/30 02:33:02;;;;;;;0.00;0.00;;;18.00;99.90;;;;;;5000980;28;20483;-93
2022/06/30 02:35:31;;;;;;;0.00;0.00;;;18.00;99.90;;;;;;5008715;28;20465;-91
2022/06/30 02:37:59;;;;;;;0.00;0.00;;;17.90;99.90;;;;;;5008254;28;20481;-95
2022/06/30 02:40:27;;;;;;;0.00;0.00;;;17.90;99.90;;;;;;5002563;28;20460;-92
2022/06/30 02:42:58;;;;;;;0.00;0.00;;;17.90;99.90;;;;;;5000612;28;20473;-92
2022/06/30 02:45:27;;;;;;;0.00;0.00;;;17.90;99.90;;;;;;4996141;28;20528;-92
2022/06/30 02:47:58;;;;;;;0.00;0.00;;;17.90;99.90;;;;;;4997315;28;20464;-90
2022/06/30 02:50:27;;;;;;;0.00;0.00;;;17.80;99.90;;;;;;4997868;28;20460;-94
2022/06/30 02:52:55;;;;;;;0.00;0.00;;;17.90;99.90;;;;;;5001197;28;20482;-92
2022/06/30 02:55:23;;;;;;;0.00;0.00;;;17.80;99.90;;;;;;4999674;28;20874;-90
2022/06/30 02:57:51;;;;;;;0.00;0.00;;;17.80;99.90;;;;;;4995188;28;20489;-90
2022/06/30 03:00:19;;;;;;;0.00;0.00;;;17.80;99.90;;;;;;4997363;28;20554;-94
2022/06/30 03:02:49;;;;;;;0.00;0.00;;;17.80;99.90;;;;;;4996275;28;20481;-93
2022/06/30 03:05:17;;;;;;;0.00;0.00;;;17.80;99.90;;;;;;4999285;28;20879;-93
2022/06/30 03:07:46;;;;;;;0.00;0.00;;;17.80;99.90;;;;;;5001692;28;20511;-95
2022/06/30 03:10:14;;;;;;;0.00;0.00;;;17.70;99.90;;;;;;5002542;28;20706;-93
2022/06/30 03:12:42;;;;;;;0.00;0.00;;;17.70;99.90;;;;;;5004076;28;20516;-95
2022/06/30 03:15:11;;;;;;;0.00;0.00;;;17.70;99.90;;;;;;5003466;28;20486;-94
2022/06/30 03:17:39;;;;;;;0.00;0.00;;;17.70;99.90;;;;;;4997836;28;20491;-92
2022/06/30 03:20:10;;;;;;;0.00;0.00;;;17.70;99.90;;;;;;4994817;28;20480;-92
2022/06/30 03:22:38;;;;;;;0.00;0.00;;;17.70;99.90;;;;;;4995874;28;21178;-94
2022/06/30 03:25:07;;;;;;;0.00;0.00;;;17.70;99.90;;;;;;4999196;28;20464;-93
2022/06/30 03:27:35;;;;;;;0.00;0.00;;;17.70;99.90;;;;;;4996648;28;20502;-91
2022/06/30 03:30:04;;;;;;;0.00;0.00;;;17.70;99.90;;;;;;4996424;28;20455;-91
2022/06/30 03:32:32;;;;;;;0.00;0.00;;;17.70;99.90;;;;;;4997084;28;20480;-92
2022/06/30 03:35:36;;;;;;;0.00;0.00;;;17.70;99.90;;;;;;5005169;28;20452;-93
2022/06/30 03:38:04;;;;;;;0.00;0.00;;;17.70;99.90;;;;;;4999371;28;20456;-92
2022/06/30 03:40:33;;;;;;;0.00;0.00;;;17.70;99.90;;;;;;4993537;28;20463;-93
2022/06/30 03:43:02;;;;;;;0.00;0.00;;;17.70;99.90;;;;;;5005220;28;20464;-93
2022/06/30 03:45:30;;;;;;;0.00;0.00;;;17.70;99.90;;;;;;5000242;28;20471;-92
2022/06/30 03:48:01;;;;;;;0.00;0.00;;;17.70;99.90;;;;;;5000696;28;20973;-93
2022/06/30 03:50:30;;;;;;;0.00;0.00;;;17.70;99.90;;;;;;5002455;28;20445;-93
2022/06/30 03:53:00;;;;;;;0.00;0.00;;;17.70;99.90;;;;;;4996035;28;20546;-93
2022/06/30 03:55:29;;;;;;;0.00;0.00;;;17.70;99.90;;;;;;4999260;28;20461;-93
2022/06/30 03:57:57;;;;;;;0.00;0.00;;;17.70;99.90;;;;;;4996264;28;21006;-93
2022/06/30 04:00:25;;;;;;;0.00;0.00;;;17.70;99.90;;;;;;4997610;28;20490;-91
2022/06/30 04:02:53;;;;;;;0.00;0.00;;;17.70;99.90;;;;;;4999078;28;20642;-92
2022/06/30 04:05:32;;;;;;;0.00;0.00;;;17.60;99.90;;;;;;5000292;28;20452;-93
2022/06/30 04:08:06;;;;;;;0.00;0.00;;;17.60;99.90;;;;;;5009614;28;20471;-93
2022/06/30 04:10:35;;;;;;;0.00;0.00;;;17.70;99.90;;;;;;5007905;28;20483;-94
2022/06/30 04:13:03;;;;;;;0.00;0.00;;;17.80;99.90;;;;;;5008784;28;20531;-92
2022/06/30 04:15:32;;;;;;;0.00;0.00;;;17.80;99.90;;;;;;5009790;28;20483;-93
2022/06/30 04:18:02;;;;;;;0.00;0.00;;;17.90;99.90;;;;;;5009316;28;20460;-93
2022/06/30 04:20:31;;;;;;;0.00;0.00;;;18.00;99.90;;;;;;5011697;28;20456;-93
2022/06/30 04:22:59;;;;;;;0.00;0.00;;;18.00;99.90;;;;;;5011249;28;20493;-94
2022/06/30 04:25:35;;;;;;;0.00;0.00;;;18.10;99.90;;;;;;5008684;28;20482;-95
2022/06/30 04:28:03;;;;;;;0.00;0.00;;;18.20;99.90;;;;;;5006686;28;20463;-93
2022/06/30 04:33:16;;;;;;;0.00;0.00;;;18.30;99.90;;;;;;4979036;28;20486;-94
2022/06/30 04:35:45;;;;;;;0.00;0.00;;;18.40;99.90;;;;;;5005439;28;20450;-92
2022/06/30 04:38:13;;;;;;;0.00;0.00;;;18.40;99.90;;;;;;4996138;28;20484;-91
2022/06/30 04:43:45;;;;;;;0.00;0.00;;;18.50;99.90;;;;;;4992862;23;20501;-79
2022/06/30 04:46:13;;;;;;;0.00;0.00;;;18.50;99.90;;;;;;4985807;28;20557;-79
2022/06/30 04:48:43;;;;;;;0.00;0.00;;;18.50;99.90;;;;;;4987426;28;20516;-79
2022/06/30 04:51:11;;;;;;;0.00;0.00;;;18.50;99.90;;;;;;4987355;28;21005;-79
2022/06/30 04:53:40;;;;;;;0.00;0.00;;;18.50;99.90;;;;;;4988146;28;20437;-80
2022/06/30 04:56:10;;;;;;;0.00;0.00;;;18.60;99.90;;;;;;4984405;28;20532;-79
2022/06/30 04:58:38;;;;;;;0.00;0.00;;;18.60;99.90;;;;;;4986306;28;20652;-79
2022/06/30 05:01:07;;;;;;;0.00;0.00;;;18.70;99.90;;;;;;4983121;28;20477;-79
2022/06/30 05:03:36;;;;;;;0.00;0.00;;;18.70;99.90;;;;;;4988099;28;20477;-76
2022/06/30 05:06:04;;;;;;;0.00;0.00;;;18.80;99.90;;;;;;4981195;28;20484;-76
2022/06/30 05:08:33;;;;;;;0.00;0.00;;;18.80;99.90;;;;;;4979901;28;20460;-76
2022/06/30 05:11:01;;;;;;;0.00;0.00;;;18.90;99.90;;;;;;4966060;28;20439;-74
2022/06/30 05:13:30;;;;;;;0.00;0.00;;;18.90;99.90;;;;;;4968620;28;21020;-74
2022/06/30 05:15:58;;;;;;;0.00;0.00;;;18.90;99.90;;;;;;4979067;28;20529;-73
2022/06/30 05:18:28;;;;;;;0.00;0.00;;;19.00;99.90;;;;;;4979634;28;20486;-73
2022/06/30 05:20:56;;;;;;;0.00;0.00;;;19.00;99.90;;;;;;4979843;28;20486;-74
2022/06/30 05:23:24;;;;;;;0.00;0.00;;;19.10;99.90;;;;;;4981187;28;20969;-74
2022/06/30 05:28:39;;;;;;;0.00;0.00;;;19.40;99.90;;;;;;4961443;28;20459;-75
2022/06/30 05:31:07;;;;;;;0.00;0.00;;;19.70;99.90;;;;;;4962210;28;20842;-74
2022/06/30 05:33:35;;;;;;;0.00;0.00;;;20.10;99.90;;;;;;4971194;28;20559;-76
2022/06/30 05:36:03;;;;;;;0.00;0.00;;;20.50;99.90;;;;;;4987827;28;20443;-76
2022/06/30 05:38:31;;;;;;;0.00;0.00;;;20.80;99.90;;;;;;4985865;28;20463;-79
2022/06/30 05:40:59;;;;;;;0.00;0.00;;;20.90;99.90;;;;;;4976677;28;21005;-78
2022/06/30 05:43:27;;;;;;;0.00;0.00;;;20.90;99.90;;;;;;4970528;28;20551;-77
2022/06/30 05:45:56;;;;;;;0.00;0.00;;;20.90;99.90;;;;;;4963030;28;20615;-77
2022/06/30 05:48:24;;;;;;;0.00;0.00;;;20.80;99.90;;;;;;4972518;28;20771;-77
2022/06/30 05:50:52;;;;;;;0.00;0.00;;;20.70;99.90;;;;;;4985101;28;20687;-74
2022/06/30 05:53:20;;;;;;;0.00;0.00;;;20.70;99.90;;;;;;4980002;28;20814;-75
2022/06/30 05:55:48;;;;;;;0.00;0.00;;;20.60;99.90;;;;;;4967837;28;20448;-75
2022/06/30 05:58:18;;;;;;;0.00;0.00;;;20.50;99.90;;;;;;4980281;28;21021;-76
2022/06/30 06:00:47;;;;;;;0.00;0.00;;;20.50;99.90;;;;;;4979971;28;20478;-75
2022/06/30 06:03:16;;;;;;;0.00;0.00;;;20.50;99.90;;;;;;4981785;28;20450;-76
2022/06/30 06:05:44;;;;;;;0.00;0.00;;;20.40;99.90;;;;;;4978545;28;20458;-75
2022/06/30 06:08:13;;;;;;;0.00;0.00;;;20.40;99.90;;;;;;4983701;28;20463;-77
2022/06/30 06:10:41;;;;;;;0.00;0.00;;;20.40;99.90;;;;;;4983320;28;20521;-75
2022/06/30 06:13:11;;;;;;;0.00;0.00;;;20.50;99.90;;;;;;4978934;28;20615;-76
2022/06/30 06:15:39;;;;;;;0.00;0.00;;;20.50;99.90;;;;;;4982817;28;20465;-77
2022/06/30 06:18:07;;;;;;;0.00;0.00;;;20.60;99.90;;;;;;4981228;28;20470;-75
2022/06/30 06:20:36;;;;;;;0.00;0.00;;;20.70;99.90;;;;;;4976812;28;21095;-77
2022/06/30 06:23:04;;;;;;;0.00;0.00;;;20.80;99.90;;;;;;4973332;28;20462;-76
2022/06/30 06:25:32;;;;;;;0.00;0.00;;;20.90;99.90;;;;;;4974254;28;20455;-78
2022/06/30 06:30:50;;;;;;;0.00;0.00;;;21.10;99.90;;;;;;4965007;28;20476;-77
2022/06/30 06:33:18;;;;;;;0.00;0.00;;;21.20;99.90;;;;;;4963352;28;20440;-77
2022/06/30 06:35:48;;;;;;;0.00;0.00;;;21.30;99.90;;;;;;4975170;28;20525;-77
2022/06/30 06:38:17;;;;;;;0.00;0.00;;;21.40;99.90;;;;;;4983969;28;20467;-76
2022/06/30 06:40:44;;;;;;;0.00;0.00;;;21.60;99.90;;;;;;4969572;28;20515;-75
2022/06/30 06:43:12;;;;;;;0.00;0.00;;;21.70;99.90;;;;;;4963846;28;20586;-76
2022/06/30 06:45:40;;;;;;;0.00;0.00;;;21.90;99.90;;;;;;4964874;28;20444;-75
2022/06/30 06:48:08;;;;;;;0.00;0.00;;;21.80;99.90;;;;;;4982340;28;20459;-75
2022/06/30 06:50:36;;;;;;;0.00;0.00;;;21.90;99.90;;;;;;4981991;28;20803;-76
2022/06/30 06:53:05;;;;;;;0.00;0.00;;;22.00;99.90;;;;;;4979366;28;20443;-75
2022/06/30 06:55:33;;;;;;;0.00;0.00;;;22.10;99.90;;;;;;4972243;28;20456;-76
2022/06/30 06:58:01;;;;;;;0.00;0.00;;;22.10;99.90;;;;;;4979313;28;20481;-76
2022/06/30 07:00:30;;;;;;;0.00;0.00;;;22.20;99.90;;;;;;4979803;28;20523;-75
2022/06/30 07:03:02;;;;;;;0.00;0.00;;;22.30;99.90;;;;;;4962584;28;20666;-76
2022/06/30 07:05:30;;;;;;;0.00;0.00;;;22.40;99.90;;;;;;4959658;28;20773;-76
2022/06/30 07:07:59;;;;;;;0.00;0.00;;;22.50;99.90;;;;;;4959212;28;20476;-77
2022/06/30 07:10:29;;;;;;;0.00;0.00;;;22.60;99.90;;;;;;4962167;28;20451;-78
2022/06/30 07:12:57;;;;;;;0.00;0.00;;;22.70;99.90;;;;;;4962329;28;20841;-76
2022/06/30 07:15:25;;;;;;;0.00;0.00;;;22.70;99.90;;;;;;4967281;28;20453;-72
2022/06/30 07:17:53;;;;;;;0.00;0.00;;;22.70;99.90;;;;;;4964003;28;20469;-73
2022/06/30 07:20:21;;;;;;;0.00;0.00;;;22.80;99.90;;;;;;4960566;28;20487;-73
2022/06/30 07:22:49;;;;;;;0.00;0.00;;;22.90;99.90;;;;;;4958829;28;20449;-73
2022/06/30 07:25:38;;;;;;;0.00;0.00;;;22.90;99.90;;;;;;4957901;28;20436;-73
2022/06/30 07:28:06;;;;;;;0.00;0.00;;;23.00;99.90;;;;;;4958640;28;20962;-71
2022/06/30 07:30:34;;;;;;;0.00;0.00;;;23.10;99.90;;;;;;4966142;28;20496;-71
2022/06/30 07:33:04;;;;;;;0.00;0.00;;;23.10;99.90;;;;;;4977601;28;20448;-73
2022/06/30 07:35:35;;;;;;;0.00;0.00;;;23.20;99.90;;;;;;4977650;28;20444;-73
2022/06/30 07:38:03;;;;;;;0.00;0.00;;;23.20;99.90;;;;;;4977806;28;20466;-73
2022/06/30 07:40:31;;;;;;;0.00;0.00;;;23.30;99.90;;;;;;4979923;28;20522;-73
2022/06/30 07:43:00;;;;;;;0.00;0.00;;;23.30;99.90;;;;;;4981005;28;20539;-73
2022/06/30 07:45:28;;;;;;;0.00;0.00;;;23.30;99.90;;;;;;4980986;28;20559;-73
2022/06/30 07:47:56;;;;;;;0.00;0.00;;;23.40;99.90;;;;;;4981176;28;20462;-71
2022/06/30 07:50:24;;;;;;;0.00;0.00;;;23.40;99.90;;;;;;4980767;28;20442;-73
2022/06/30 07:52:52;;;;;;;0.00;0.00;;;23.50;99.90;;;;;;4981206;28;20441;-73
2022/06/30 07:55:21;;;;;;;0.00;0.00;;;23.50;99.90;;;;;;4980759;28;20458;-71
2022/06/30 07:57:49;;;;;;;0.00;0.00;;;23.60;99.90;;;;;;4980943;28;20971;-73
2022/06/30 08:00:24;;;;;;;0.00;0.00;;;23.60;99.90;;;;;;4981287;28;20541;-73
2022/06/30 08:02:52;;;;;;;0.00;0.00;;;23.70;99.90;;;;;;4981347;28;20541;-74
2022/06/30 08:05:20;;;;;;;0.00;0.00;;;23.70;99.90;;;;;;4980540;28;20994;-72
2022/06/30 08:07:48;;;;;;;0.00;0.00;;;23.80;99.90;;;;;;4980805;28;20565;-74
2022/06/30 08:10:16;;;;;;;0.00;0.00;;;23.80;99.90;;;;;;4980752;28;20475;-72
2022/06/30 08:12:44;;;;;;;0.00;0.00;;;23.90;99.90;;;;;;4980624;28;20568;-72
2022/06/30 08:15:12;;;;;;;0.00;0.00;;;24.00;99.90;;;;;;4981186;28;20451;-73
2022/06/30 08:17:42;;;;;;;0.00;0.00;;;24.10;99.90;;;;;;4980769;28;20495;-74
2022/06/30 08:20:10;;;;;;;0.00;0.00;;;24.10;99.90;;;;;;4981067;28;20831;-74
2022/06/30 08:22:38;;;;;;;0.00;0.00;;;24.20;99.90;;;;;;4980076;28;20590;-73
2022/06/30 08:25:06;;;;;;;0.00;0.00;;;24.20;99.90;;;;;;4980688;28;20823;-72
2022/06/30 08:27:34;;;;;;;0.00;0.00;;;24.30;99.90;;;;;;4980408;28;20978;-72
2022/06/30 08:30:02;;;;;;;0.00;0.00;;;24.40;99.90;;;;;;4980559;28;20452;-73
2022/06/30 08:32:30;;;;;;;0.00;0.00;;;24.40;99.90;;;;;;4980615;28;20546;-72
2022/06/30 08:35:00;;;;;;;0.00;0.00;;;24.50;99.90;;;;;;4980475;28;20507;-72
2022/06/30 08:37:28;;;;;;;0.00;0.00;;;24.50;99.90;;;;;;4980785;28;20503;-73
2022/06/30 08:42:42;;;;;;;0.00;0.00;;;24.70;99.90;;;;;;4980339;28;20720;-73
2022/06/30 08:45:17;;;;;;;0.00;0.00;;;24.80;99.90;;;;;;4980838;28;20446;-74
2022/06/30 08:47:46;;;;;;;0.00;0.00;;;24.80;99.90;;;;;;4979380;28;20457;-70
2022/06/30 08:50:17;;;;;;;0.00;0.00;;;24.90;99.90;;;;;;4971144;28;21130;-74
2022/06/30 08:52:47;;;;;;;0.00;0.00;;;24.90;99.90;;;;;;4969332;28;21680;-74
2022/06/30 08:55:15;;;;;;;0.00;0.00;;;25.00;99.90;;;;;;4967935;28;20454;-73
2022/06/30 08:57:46;;;;;;;0.00;0.00;;;25.10;99.90;;;;;;4964090;28;20489;-74
2022/06/30 09:00:16;;;;;;;0.00;0.00;;;25.10;99.90;;;;;;4973260;28;20513;-72
2022/06/30 09:02:46;;;;;;;0.00;0.00;;;25.10;99.90;;;;;;4967371;28;20498;-72
2022/06/30 09:05:16;;;;;;;0.00;0.00;;;25.20;99.90;;;;;;4982063;28;21009;-72
2022/06/30 09:07:44;;;;;;;0.00;0.00;;;25.30;99.90;;;;;;4981765;28;20469;-73
2022/06/30 09:10:32;;;;;;;0.00;0.00;;;25.30;99.90;;;;;;4980882;28;20457;-73
2022/06/30 09:13:01;;;;;;;0.00;0.00;;;25.40;99.90;;;;;;4965362;28;21165;-73
2022/06/30 09:15:30;;;;;;;0.00;0.00;;;25.50;99.90;;;;;;4979376;28;20544;-73
2022/06/30 09:17:58;;;;;;;0.00;0.00;;;25.50;99.90;;;;;;4979710;28;20462;-72
2022/06/30 09:20:35;;;;;;;0.00;0.00;;;25.60;99.90;;;;;;4979568;28;20446;-72
2022/06/30 09:23:20;;;;;;;0.00;0.00;;;25.70;99.90;;;;;;4979124;28;20509;-72
2022/06/30 09:25:49;;;;;;;0.00;0.00;;;25.70;99.90;;;;;;4979583;28;20542;-71
2022/06/30 09:28:39;;;;;;;0.00;0.00;;;25.80;99.90;;;;;;4979483;28;20836;-72
2022/06/30 09:31:33;;;;;;;0.00;0.00;;;25.90;99.90;;;;;;4964600;28;20470;-70
2022/06/30 09:34:16;;;;;;;0.00;0.00;;;25.90;99.90;;;;;;4980331;28;20436;-71
2022/06/30 09:36:46;;;;;;;0.00;0.00;;;26.00;99.90;;;;;;4970349;28;20509;-71
2022/06/30 09:39:16;;;;;;;0.00;0.00;;;26.00;99.90;;;;;;4973794;28;20455;-71
2022/06/30 09:41:47;;;;;;;0.00;0.00;;;26.10;99.90;;;;;;4970887;28;20483;-71
2022/06/30 09:44:23;;;;;;;0.00;0.00;;;26.10;99.90;;;;;;4974531;28;21009;-71
2022/06/30 09:46:58;;;;;;;0.00;0.00;;;26.20;99.90;;;;;;4969386;28;21082;-71
2022/06/30 09:49:30;;;;;;;0.00;0.00;;;26.30;99.90;;;;;;4974727;28;20457;-70
2022/06/30 09:52:00;;;;;;;0.00;0.00;;;26.30;99.90;;;;;;4967673;28;20449;-70
2022/06/30 09:54:31;;;;;;;0.00;0.00;;;26.30;99.90;;;;;;4968092;28;20455;-70
2022/06/30 09:57:05;;;;;;;0.00;0.00;;;26.30;99.90;;;;;;4967183;28;20475;-70
2022/06/30 09:59:33;;;;;;;0.00;0.00;;;26.30;99.90;;;;;;4969539;28;20548;-69
2022/06/30 10:02:06;;;;;;;0.00;0.00;;;26.40;99.90;;;;;;4968278;28;20804;-70
2022/06/30 10:04:53;;;;;;;0.00;0.00;;;26.50;99.90;;;;;;4967920;28;20501;-71
2022/06/30 10:07:23;;;;;;;0.00;0.00;;;26.50;99.90;;;;;;4967965;28;20821;-70
2022/06/30 10:09:51;;;;;;;0.00;0.00;;;26.50;99.90;;;;;;4959697;28;20444;-73
2022/06/30 10:12:21;;;;;;;0.00;0.00;;;26.50;99.90;;;;;;4963897;28;20740;-71
2022/06/30 10:14:51;;;;;;;0.00;0.00;;;26.60;99.90;;;;;;4973545;28;20471;-71
2022/06/30 10:17:22;;;;;;;0.00;0.00;;;26.70;99.90;;;;;;4968687;28;20858;-72
2022/06/30 10:19:52;;;;;;;0.00;0.00;;;26.70;99.90;;;;;;4976161;28;20458;-70
2022/06/30 10:22:22;;;;;;;0.00;0.00;;;26.70;99.90;;;;;;4973057;28;20558;-72
2022/06/30 10:24:52;;;;;;;0.00;0.00;;;26.80;99.90;;;;;;4967548;28;20465;-70
2022/06/30 10:27:21;;;;;;;0.00;0.00;;;26.80;99.90;;;;;;4968218;28;20482;-69
2022/06/30 10:29:53;;;;;;;0.00;0.00;;;26.80;99.90;;;;;;4968709;28;20866;-69
2022/06/30 10:32:32;;;;;;;0.00;0.00;;;26.80;99.90;;;;;;4958942;28;20979;-71
2022/06/30 10:35:07;;;;;;;0.00;0.00;;;26.90;99.90;;;;;;4959052;28;20524;-70
2022/06/30 10:37:43;;;;;;;0.00;0.00;;;27.00;99.90;;;;;;4959033;28;20800;-69
2022/06/30 10:40:22;;;;;;;0.00;0.00;;;27.10;99.90;;;;;;4978571;28;20499;-70
2022/06/30 10:42:55;;;;;;;0.00;0.00;;;27.10;99.90;;;;;;4977646;28;20558;-71
2022/06/30 10:45:36;;;;;;;0.00;0.00;;;27.10;99.90;;;;;;4978443;28;20618;-71
2022/06/30 10:48:06;;;;;;;0.00;0.00;;;27.20;99.90;;;;;;4977768;28;20608;-71
2022/06/30 10:50:36;;;;;;;0.00;0.00;;;27.20;99.90;;;;;;4978054;28;20501;-71
2022/06/30 10:53:07;;;;;;;0.00;0.00;;;27.20;99.90;;;;;;4978815;28;20988;-71
2022/06/30 10:55:46;;;;;;;0.00;0.00;;;27.30;99.90;;;;;;4978153;28;20436;-71
2022/06/30 10:58:14;;;;;;;0.00;0.00;;;27.30;99.90;;;;;;4976032;28;20537;-69
2022/06/30 11:00:59;;;;;;;0.00;0.00;;;27.40;99.90;;;;;;4977408;28;20895;-69
2022/06/30 11:04:02;;;;;;;0.00;0.00;;;27.40;99.90;;;;;;4977309;28;20477;-69
2022/06/30 11:07:06;;;;;;;0.00;0.00;;;27.50;99.90;;;;;;4975686;28;20494;-71
2022/06/30 11:10:18;;;;;;;0.00;0.00;;;27.60;99.90;;;;;;4975887;28;20533;-71
2022/06/30 11:13:07;;;;;;;0.00;0.00;;;27.70;99.90;;;;;;4977642;28;20554;-70
2022/06/30 11:15:55;;;;;;;0.00;0.00;;;27.80;99.90;;;;;;4977912;28;21105;-71
2022/06/30 11:18:25;;;;;;;0.00;0.00;;;27.90;99.90;;;;;;4981479;28;20455;-69
2022/06/30 11:20:55;;;;;;;0.00;0.00;;;28.00;99.90;;;;;;4989780;28;20428;-72
2022/06/30 11:23:24;;;;;;;0.00;0.00;;;28.20;99.90;;;;;;4988871;28;20575;-73
2022/06/30 11:28:41;;;;;;;0.00;0.00;;;28.30;99.90;;;;;;4985797;28;20553;-71
2022/06/30 11:31:26;;;;;;;0.00;0.00;;;28.30;99.90;;;;;;4985172;28;20442;-69
2022/06/30 11:34:00;;;;;;;0.00;0.00;;;28.20;99.90;;;;;;4984651;28;21225;-71
2022/06/30 11:36:28;;;;;;;0.00;0.00;;;28.20;99.90;;;;;;4983898;28;20931;-70
2022/06/30 11:38:58;;;;;;;0.00;0.00;;;28.10;99.90;;;;;;4977878;28;20527;-72
2022/06/30 11:44:15;;;;;;;0.00;0.00;;;28.10;99.90;;;;;;4977491;28;20492;-72
2022/06/30 11:46:55;;;;;;;0.00;0.00;;;28.20;99.90;;;;;;4982125;28;20553;-72
2022/06/30 11:49:27;;;;;;;0.00;0.00;;;28.20;99.90;;;;;;4982785;28;20553;-71
2022/06/30 11:51:56;;;;;;;0.00;0.00;;;28.30;99.90;;;;;;4979570;28;20468;-71
2022/06/30 11:54:27;;;;;;;0.00;0.00;;;28.50;99.90;;;;;;4962817;28;20469;-72
2022/06/30 11:56:58;;;;;;;0.00;0.00;;;28.60;99.90;;;;;;4962512;28;20776;-72
2022/06/30 11:59:26;;;;;;;0.00;0.00;;;28.80;99.90;;;;;;4962205;28;20483;-72
2022/06/30 12:02:04;;;;;;;0.00;0.00;;;28.90;99.90;;;;;;4962487;28;20464;-72
2022/06/30 12:04:41;;;;;;;0.00;0.00;;;28.90;99.90;;;;;;4978232;28;20924;-72
2022/06/30 12:07:11;;;;;;;0.00;0.00;;;28.90;99.90;;;;;;4981891;28;20462;-72
2022/06/30 12:09:39;;;;;;;0.00;0.00;;;28.90;99.90;;;;;;4982220;28;20481;-72
2022/06/30 12:12:10;;;;;;;0.00;0.00;;;29.00;99.90;;;;;;4982008;28;20890;-73
2022/06/30 12:14:45;;;;;;;0.00;0.00;;;29.20;99.90;;;;;;4981539;28;20448;-74
2022/06/30 12:17:14;;;;;;;0.00;0.00;;;29.30;99.90;;;;;;4981302;28;20625;-73
2022/06/30 12:19:48;;;;;;;0.00;0.00;;;29.50;99.90;;;;;;4981418;28;20453;-73
2022/06/30 12:22:16;;;;;;;0.00;0.00;;;29.60;99.90;;;;;;4980601;28;20471;-73
2022/06/30 12:24:47;;;;;;;0.00;0.00;;;29.70;99.90;;;;;;4981114;28;21007;-77
2022/06/30 12:27:27;;;;;;;0.00;0.00;;;29.80;99.90;;;;;;4971866;28;20489;-80
2022/06/30 12:29:59;;;;;;;0.00;0.00;;;29.80;99.90;;;;;;4966537;28;21017;-74
2022/06/30 12:32:27;;;;;;;0.00;0.00;;;29.70;99.90;;;;;;4968678;28;20697;-74
2022/06/30 12:34:58;;;;;;;0.00;0.00;;;29.70;99.90;;;;;;4969641;28;20747;-74
2022/06/30 12:37:31;;;;;;;0.00;0.00;;;29.70;99.90;;;;;;4972728;28;20505;-74
2022/06/30 12:40:02;;;;;;;0.00;0.00;;;29.60;99.90;;;;;;4969737;28;20541;-75
2022/06/30 12:42:43;;;;;;;0.00;0.00;;;29.60;99.90;;;;;;4980470;28;20898;-74
2022/06/30 12:45:53;;;;;;;0.00;0.00;;;29.60;99.90;;;;;;4964580;28;20585;-74
2022/06/30 12:48:42;;;;;;;0.00;0.00;;;29.60;99.90;;;;;;4960466;28;20483;-75
2022/06/30 12:51:11;;;;;;;0.00;0.00;;;29.70;99.90;;;;;;4960598;28;20904;-75
2022/06/30 12:53:40;;;;;;;0.00;0.00;;;29.90;99.90;;;;;;4960632;28;20931;-75
2022/06/30 12:56:13;;;;;;;0.00;0.00;;;30.10;99.90;;;;;;4962305;28;20698;-75
2022/06/30 12:58:48;;;;;;;0.00;0.00;;;30.20;99.90;;;;;;4971231;28;20483;-73
2022/06/30 13:01:20;;;;;;;0.00;0.00;;;30.40;99.90;;;;;;4972536;28;20874;-75
2022/06/30 13:03:57;;;;;;;0.00;0.00;;;30.50;99.90;;;;;;4966263;28;20470;-75
2022/06/30 13:06:27;;;;;;;0.00;0.00;;;30.40;99.90;;;;;;4976392;28;20641;-74
2022/06/30 13:08:56;;;;;;;0.00;0.00;;;30.30;99.90;;;;;;4973351;28;20489;-74
2022/06/30 13:11:26;;;;;;;0.00;0.00;;;30.20;99.90;;;;;;4959962;28;20921;-74
2022/06/30 13:13:57;;;;;;;0.00;0.00;;;30.20;99.90;;;;;;4976144;28;20497;-74
2022/06/30 13:16:27;;;;;;;0.00;0.00;;;30.10;99.90;;;;;;4980533;28;20547;-74
2022/06/30 13:18:55;;;;;;;0.00;0.00;;;30.10;99.90;;;;;;4980576;28;20450;-74
2022/06/30 13:21:23;;;;;;;0.00;0.00;;;30.00;99.90;;;;;;4978956;28;20446;-74
2022/06/30 13:23:51;;;;;;;0.00;0.00;;;29.90;99.90;;;;;;4979101;28;20569;-74
2022/06/30 13:26:19;;;;;;;0.00;0.00;;;29.80;99.90;;;;;;4978873;28;20458;-74
2022/06/30 13:28:47;;;;;;;0.00;0.00;;;29.70;99.90;;;;;;4976177;28;20958;-74
2022/06/30 13:31:16;;;;;;;0.00;0.00;;;29.60;99.90;;;;;;4978785;28;20685;-74
2022/06/30 13:33:46;;;;;;;0.00;0.00;;;29.60;99.90;;;;;;4970996;28;20475;-74
2022/06/30 13:36:15;;;;;;;0.00;0.00;;;29.70;99.90;;;;;;4967925;28;20511;-74